sensor_id;sensor_type;location;lat;lon;timestamp;P1;durP1;ratioP1;P2;durP2;ratioP2
42030;SDS011;27709;52.036;5.906;2024-02-16T00:00:25;4.25;;;1.63;;
42030;SDS011;27709;52.036;5.906;2024-02-16T00:02:51;2.60;;;1.48;;
42030;SDS011;27709;52.036;5.906;2024-02-16T00:05:17;2.38;;;1.08;;
42030;SDS011;27709;52.036;5.906;2024-02-16T00:07:43;5.30;;;1.40;;
42030;SDS011;27709;52.036;5.906;2024-02-16T00:10:08;4.43;;;1.52;;
42030;SDS011;27709;52.036;5.906;2024-02-16T00:12:35;2.95;;;1.50;;
42030;SDS011;27709;52.036;5.906;2024-02-16T00:15:01;6.15;;;1.40;;
42030;SDS011;27709;52.036;5.906;2024-02-16T00:17:27;2.97;;;1.23;;
42030;SDS011;27709;52.036;5.906;2024-02-16T00:19:54;6.22;;;1.30;;
42030;SDS011;27709;52.036;5.906;2024-02-16T00:22:20;3.63;;;1.33;;
42030;SDS011;27709;52.036;5.906;2024-02-16T00:24:46;6.20;;;1.40;;
42030;SDS011;27709;52.036;5.906;2024-02-16T00:27:12;5.05;;;1.50;;
42030;SDS011;27709;52.036;5.906;2024-02-16T00:29:39;4.88;;;1.48;;
42030;SDS011;27709;52.036;5.906;2024-02-16T00:32:05;3.45;;;1.30;;
42030;SDS011;27709;52.036;5.906;2024-02-16T00:34:35;3.85;;;1.30;;
42030;SDS011;27709;52.036;5.906;2024-02-16T00:37:02;4.20;;;1.65;;
42030;SDS011;27709;52.036;5.906;2024-02-16T00:39:30;4.47;;;1.63;;
42030;SDS011;27709;52.036;5.906;2024-02-16T00:41:58;4.35;;;1.27;;
42030;SDS011;27709;52.036;5.906;2024-02-16T00:44:24;3.97;;;1.10;;
42030;SDS011;27709;52.036;5.906;2024-02-16T00:46:49;4.95;;;1.52;;
42030;SDS011;27709;52.036;5.906;2024-02-16T00:49:15;2.88;;;1.40;;
42030;SDS011;27709;52.036;5.906;2024-02-16T00:51:40;3.80;;;1.60;;
42030;SDS011;27709;52.036;5.906;2024-02-16T00:54:06;4.55;;;1.50;;
42030;SDS011;27709;52.036;5.906;2024-02-16T00:56:32;3.08;;;1.45;;
42030;SDS011;27709;52.036;5.906;2024-02-16T00:58:58;3.92;;;1.33;;
42030;SDS011;27709;52.036;5.906;2024-02-16T01:01:23;2.85;;;1.10;;
42030;SDS011;27709;52.036;5.906;2024-02-16T01:03:51;4.20;;;1.38;;
42030;SDS011;27709;52.036;5.906;2024-02-16T01:06:17;4.30;;;1.40;;
42030;SDS011;27709;52.036;5.906;2024-02-16T01:08:43;3.17;;;1.23;;
42030;SDS011;27709;52.036;5.906;2024-02-16T01:11:09;2.97;;;1.40;;
42030;SDS011;27709;52.036;5.906;2024-02-16T01:13:34;5.30;;;1.65;;
42030;SDS011;27709;52.036;5.906;2024-02-16T01:16:00;6.72;;;1.58;;
42030;SDS011;27709;52.036;5.906;2024-02-16T01:18:27;2.70;;;1.40;;
42030;SDS011;27709;52.036;5.906;2024-02-16T01:20:54;3.85;;;1.30;;
42030;SDS011;27709;52.036;5.906;2024-02-16T01:23:20;4.47;;;1.20;;
42030;SDS011;27709;52.036;5.906;2024-02-16T01:25:46;3.60;;;1.55;;
42030;SDS011;27709;52.036;5.906;2024-02-16T01:28:12;5.43;;;1.73;;
42030;SDS011;27709;52.036;5.906;2024-02-16T01:30:38;3.30;;;1.35;;
42030;SDS011;27709;52.036;5.906;2024-02-16T01:33:05;4.65;;;1.80;;
42030;SDS011;27709;52.036;5.906;2024-02-16T01:35:31;4.65;;;1.50;;
42030;SDS011;27709;52.036;5.906;2024-02-16T01:37:57;3.40;;;1.38;;
42030;SDS011;27709;52.036;5.906;2024-02-16T01:40:23;3.67;;;1.42;;
42030;SDS011;27709;52.036;5.906;2024-02-16T01:42:51;3.55;;;1.65;;
42030;SDS011;27709;52.036;5.906;2024-02-16T01:45:18;4.18;;;1.30;;
42030;SDS011;27709;52.036;5.906;2024-02-16T01:47:44;5.00;;;1.80;;
42030;SDS011;27709;52.036;5.906;2024-02-16T01:50:11;5.60;;;1.58;;
42030;SDS011;27709;52.036;5.906;2024-02-16T01:52:39;3.45;;;1.48;;
42030;SDS011;27709;52.036;5.906;2024-02-16T01:55:05;4.38;;;1.50;;
42030;SDS011;27709;52.036;5.906;2024-02-16T01:57:35;4.15;;;1.50;;
42030;SDS011;27709;52.036;5.906;2024-02-16T02:00:10;2.85;;;1.35;;
42030;SDS011;27709;52.036;5.906;2024-02-16T02:02:37;2.85;;;1.27;;
42030;SDS011;27709;52.036;5.906;2024-02-16T02:05:03;4.30;;;1.38;;
42030;SDS011;27709;52.036;5.906;2024-02-16T02:07:29;2.97;;;1.40;;
42030;SDS011;27709;52.036;5.906;2024-02-16T02:09:55;3.65;;;1.45;;
42030;SDS011;27709;52.036;5.906;2024-02-16T02:12:20;2.88;;;1.42;;
42030;SDS011;27709;52.036;5.906;2024-02-16T02:14:47;4.63;;;1.50;;
42030;SDS011;27709;52.036;5.906;2024-02-16T02:17:13;5.75;;;1.80;;
42030;SDS011;27709;52.036;5.906;2024-02-16T02:19:39;2.70;;;1.40;;
42030;SDS011;27709;52.036;5.906;2024-02-16T02:22:08;4.43;;;1.77;;
42030;SDS011;27709;52.036;5.906;2024-02-16T02:24:44;3.92;;;1.42;;
42030;SDS011;27709;52.036;5.906;2024-02-16T02:27:11;4.47;;;1.30;;
42030;SDS011;27709;52.036;5.906;2024-02-16T02:29:37;4.93;;;1.70;;
42030;SDS011;27709;52.036;5.906;2024-02-16T02:32:04;3.72;;;1.65;;
42030;SDS011;27709;52.036;5.906;2024-02-16T02:34:30;5.18;;;1.80;;
42030;SDS011;27709;52.036;5.906;2024-02-16T02:36:55;3.10;;;1.00;;
42030;SDS011;27709;52.036;5.906;2024-02-16T02:39:21;3.88;;;1.70;;
42030;SDS011;27709;52.036;5.906;2024-02-16T02:41:46;3.58;;;1.60;;
42030;SDS011;27709;52.036;5.906;2024-02-16T02:44:12;5.10;;;1.80;;
42030;SDS011;27709;52.036;5.906;2024-02-16T02:46:38;4.00;;;1.52;;
42030;SDS011;27709;52.036;5.906;2024-02-16T02:49:03;3.70;;;1.55;;
42030;SDS011;27709;52.036;5.906;2024-02-16T02:51:29;6.78;;;1.63;;
42030;SDS011;27709;52.036;5.906;2024-02-16T02:53:55;3.65;;;1.38;;
42030;SDS011;27709;52.036;5.906;2024-02-16T02:56:21;4.10;;;1.50;;
42030;SDS011;27709;52.036;5.906;2024-02-16T02:58:46;3.15;;;1.27;;
42030;SDS011;27709;52.036;5.906;2024-02-16T03:01:12;3.42;;;1.50;;
42030;SDS011;27709;52.036;5.906;2024-02-16T03:03:39;4.82;;;1.42;;
42030;SDS011;27709;52.036;5.906;2024-02-16T03:06:06;3.53;;;1.65;;
42030;SDS011;27709;52.036;5.906;2024-02-16T03:08:32;4.32;;;1.48;;
42030;SDS011;27709;52.036;5.906;2024-02-16T03:10:58;3.67;;;1.50;;
42030;SDS011;27709;52.036;5.906;2024-02-16T03:13:25;4.47;;;1.70;;
42030;SDS011;27709;52.036;5.906;2024-02-16T03:15:51;3.83;;;1.50;;
42030;SDS011;27709;52.036;5.906;2024-02-16T03:18:17;2.33;;;1.40;;
42030;SDS011;27709;52.036;5.906;2024-02-16T03:20:46;2.92;;;1.50;;
42030;SDS011;27709;52.036;5.906;2024-02-16T03:23:15;3.72;;;1.17;;
42030;SDS011;27709;52.036;5.906;2024-02-16T03:25:41;2.90;;;1.45;;
42030;SDS011;27709;52.036;5.906;2024-02-16T03:28:11;3.72;;;1.30;;
42030;SDS011;27709;52.036;5.906;2024-02-16T03:30:37;4.68;;;1.40;;
42030;SDS011;27709;52.036;5.906;2024-02-16T03:33:03;3.95;;;1.48;;
42030;SDS011;27709;52.036;5.906;2024-02-16T03:35:29;4.30;;;1.67;;
42030;SDS011;27709;52.036;5.906;2024-02-16T03:37:55;5.15;;;1.60;;
42030;SDS011;27709;52.036;5.906;2024-02-16T03:40:21;4.00;;;1.60;;
42030;SDS011;27709;52.036;5.906;2024-02-16T03:42:49;4.20;;;1.40;;
42030;SDS011;27709;52.036;5.906;2024-02-16T03:45:15;2.97;;;1.20;;
42030;SDS011;27709;52.036;5.906;2024-02-16T03:47:41;3.38;;;1.40;;
42030;SDS011;27709;52.036;5.906;2024-02-16T03:50:07;3.63;;;1.65;;
42030;SDS011;27709;52.036;5.906;2024-02-16T03:52:33;3.33;;;1.55;;
42030;SDS011;27709;52.036;5.906;2024-02-16T03:54:58;3.67;;;1.60;;
42030;SDS011;27709;52.036;5.906;2024-02-16T03:57:24;4.63;;;1.52;;
42030;SDS011;27709;52.036;5.906;2024-02-16T03:59:50;4.00;;;1.30;;
42030;SDS011;27709;52.036;5.906;2024-02-16T04:02:17;4.40;;;1.40;;
42030;SDS011;27709;52.036;5.906;2024-02-16T04:04:43;3.63;;;1.42;;
42030;SDS011;27709;52.036;5.906;2024-02-16T04:07:09;2.42;;;1.50;;
42030;SDS011;27709;52.036;5.906;2024-02-16T04:09:35;3.85;;;1.60;;
42030;SDS011;27709;52.036;5.906;2024-02-16T04:12:01;3.33;;;1.25;;
42030;SDS011;27709;52.036;5.906;2024-02-16T04:14:28;5.30;;;1.30;;
42030;SDS011;27709;52.036;5.906;2024-02-16T04:16:55;2.88;;;1.45;;
42030;SDS011;27709;52.036;5.906;2024-02-16T04:19:23;2.78;;;1.40;;
42030;SDS011;27709;52.036;5.906;2024-02-16T04:21:50;3.17;;;1.35;;
42030;SDS011;27709;52.036;5.906;2024-02-16T04:24:15;2.65;;;1.42;;
42030;SDS011;27709;52.036;5.906;2024-02-16T04:26:41;3.28;;;1.30;;
42030;SDS011;27709;52.036;5.906;2024-02-16T04:29:07;3.75;;;1.60;;
42030;SDS011;27709;52.036;5.906;2024-02-16T04:31:32;3.72;;;1.40;;
42030;SDS011;27709;52.036;5.906;2024-02-16T04:33:58;3.90;;;1.70;;
42030;SDS011;27709;52.036;5.906;2024-02-16T04:36:24;3.67;;;1.17;;
42030;SDS011;27709;52.036;5.906;2024-02-16T04:38:50;2.88;;;1.50;;
42030;SDS011;27709;52.036;5.906;2024-02-16T04:41:15;2.90;;;1.50;;
42030;SDS011;27709;52.036;5.906;2024-02-16T04:43:41;4.43;;;1.27;;
42030;SDS011;27709;52.036;5.906;2024-02-16T04:46:07;3.22;;;1.42;;
42030;SDS011;27709;52.036;5.906;2024-02-16T04:48:39;3.17;;;1.35;;
42030;SDS011;27709;52.036;5.906;2024-02-16T04:51:05;2.75;;;1.40;;
42030;SDS011;27709;52.036;5.906;2024-02-16T04:53:31;3.15;;;1.52;;
42030;SDS011;27709;52.036;5.906;2024-02-16T04:55:56;5.45;;;1.80;;
42030;SDS011;27709;52.036;5.906;2024-02-16T04:58:22;4.47;;;1.30;;
42030;SDS011;27709;52.036;5.906;2024-02-16T05:00:47;2.83;;;1.73;;
42030;SDS011;27709;52.036;5.906;2024-02-16T05:03:13;4.70;;;1.92;;
42030;SDS011;27709;52.036;5.906;2024-02-16T05:05:38;3.08;;;1.60;;
42030;SDS011;27709;52.036;5.906;2024-02-16T05:08:04;2.90;;;1.55;;
42030;SDS011;27709;52.036;5.906;2024-02-16T05:10:30;4.15;;;1.95;;
42030;SDS011;27709;52.036;5.906;2024-02-16T05:12:56;5.10;;;2.22;;
42030;SDS011;27709;52.036;5.906;2024-02-16T05:15:23;5.05;;;1.80;;
42030;SDS011;27709;52.036;5.906;2024-02-16T05:17:49;4.07;;;1.80;;
42030;SDS011;27709;52.036;5.906;2024-02-16T05:20:14;5.18;;;1.65;;
42030;SDS011;27709;52.036;5.906;2024-02-16T05:22:44;3.60;;;1.85;;
42030;SDS011;27709;52.036;5.906;2024-02-16T05:25:14;4.00;;;1.70;;
42030;SDS011;27709;52.036;5.906;2024-02-16T05:27:43;3.70;;;1.98;;
42030;SDS011;27709;52.036;5.906;2024-02-16T05:30:10;5.50;;;2.10;;
42030;SDS011;27709;52.036;5.906;2024-02-16T05:32:38;2.75;;;1.63;;
42030;SDS011;27709;52.036;5.906;2024-02-16T05:35:04;5.45;;;2.00;;
42030;SDS011;27709;52.036;5.906;2024-02-16T05:37:40;3.72;;;1.73;;
42030;SDS011;27709;52.036;5.906;2024-02-16T05:40:16;4.05;;;2.05;;
42030;SDS011;27709;52.036;5.906;2024-02-16T05:42:56;3.63;;;1.60;;
42030;SDS011;27709;52.036;5.906;2024-02-16T05:45:23;3.25;;;1.73;;
42030;SDS011;27709;52.036;5.906;2024-02-16T05:47:48;5.10;;;2.00;;
42030;SDS011;27709;52.036;5.906;2024-02-16T05:50:15;4.22;;;1.75;;
42030;SDS011;27709;52.036;5.906;2024-02-16T05:52:41;3.17;;;1.58;;
42030;SDS011;27709;52.036;5.906;2024-02-16T05:55:08;3.72;;;1.75;;
42030;SDS011;27709;52.036;5.906;2024-02-16T05:57:34;3.67;;;1.85;;
42030;SDS011;27709;52.036;5.906;2024-02-16T06:00:00;5.05;;;1.60;;
42030;SDS011;27709;52.036;5.906;2024-02-16T06:02:29;5.13;;;2.00;;
42030;SDS011;27709;52.036;5.906;2024-02-16T06:04:55;6.40;;;2.40;;
42030;SDS011;27709;52.036;5.906;2024-02-16T06:07:21;4.85;;;1.83;;
42030;SDS011;27709;52.036;5.906;2024-02-16T06:09:47;4.97;;;2.00;;
42030;SDS011;27709;52.036;5.906;2024-02-16T06:12:12;3.28;;;1.85;;
42030;SDS011;27709;52.036;5.906;2024-02-16T06:14:38;5.72;;;2.08;;
42030;SDS011;27709;52.036;5.906;2024-02-16T06:17:04;4.45;;;1.88;;
42030;SDS011;27709;52.036;5.906;2024-02-16T06:19:29;4.45;;;1.80;;
42030;SDS011;27709;52.036;5.906;2024-02-16T06:21:57;3.53;;;1.85;;
42030;SDS011;27709;52.036;5.906;2024-02-16T06:24:24;5.43;;;2.13;;
42030;SDS011;27709;52.036;5.906;2024-02-16T06:26:49;4.68;;;2.03;;
42030;SDS011;27709;52.036;5.906;2024-02-16T06:29:19;4.65;;;2.20;;
42030;SDS011;27709;52.036;5.906;2024-02-16T06:31:45;3.45;;;1.80;;
42030;SDS011;27709;52.036;5.906;2024-02-16T06:34:12;5.43;;;2.05;;
42030;SDS011;27709;52.036;5.906;2024-02-16T06:36:44;5.00;;;1.92;;
42030;SDS011;27709;52.036;5.906;2024-02-16T06:39:10;4.53;;;2.15;;
42030;SDS011;27709;52.036;5.906;2024-02-16T06:41:36;8.23;;;2.70;;
42030;SDS011;27709;52.036;5.906;2024-02-16T06:44:04;4.75;;;2.30;;
42030;SDS011;27709;52.036;5.906;2024-02-16T06:46:30;4.63;;;2.38;;
42030;SDS011;27709;52.036;5.906;2024-02-16T06:48:56;5.47;;;2.30;;
42030;SDS011;27709;52.036;5.906;2024-02-16T06:51:22;4.97;;;2.00;;
42030;SDS011;27709;52.036;5.906;2024-02-16T06:53:49;4.57;;;2.17;;
42030;SDS011;27709;52.036;5.906;2024-02-16T06:56:14;6.03;;;2.33;;
42030;SDS011;27709;52.036;5.906;2024-02-16T06:58:40;4.13;;;2.08;;
42030;SDS011;27709;52.036;5.906;2024-02-16T07:01:06;6.15;;;2.38;;
42030;SDS011;27709;52.036;5.906;2024-02-16T07:03:32;5.30;;;2.03;;
42030;SDS011;27709;52.036;5.906;2024-02-16T07:05:58;3.40;;;2.08;;
42030;SDS011;27709;52.036;5.906;2024-02-16T07:08:23;4.13;;;1.70;;
42030;SDS011;27709;52.036;5.906;2024-02-16T07:10:50;4.03;;;2.00;;
42030;SDS011;27709;52.036;5.906;2024-02-16T07:13:18;5.22;;;2.30;;
42030;SDS011;27709;52.036;5.906;2024-02-16T07:15:43;4.53;;;2.75;;
42030;SDS011;27709;52.036;5.906;2024-02-16T07:18:09;6.80;;;2.05;;
42030;SDS011;27709;52.036;5.906;2024-02-16T07:20:35;4.70;;;2.30;;
42030;SDS011;27709;52.036;5.906;2024-02-16T07:23:01;5.97;;;2.40;;
42030;SDS011;27709;52.036;5.906;2024-02-16T07:25:27;4.10;;;2.33;;
42030;SDS011;27709;52.036;5.906;2024-02-16T07:27:53;3.40;;;2.38;;
42030;SDS011;27709;52.036;5.906;2024-02-16T07:30:19;6.15;;;2.20;;
42030;SDS011;27709;52.036;5.906;2024-02-16T07:32:51;6.70;;;2.35;;
42030;SDS011;27709;52.036;5.906;2024-02-16T07:35:17;4.57;;;2.45;;
42030;SDS011;27709;52.036;5.906;2024-02-16T07:37:43;4.60;;;2.42;;
42030;SDS011;27709;52.036;5.906;2024-02-16T07:40:09;5.18;;;2.45;;
42030;SDS011;27709;52.036;5.906;2024-02-16T07:42:39;5.93;;;2.45;;
42030;SDS011;27709;52.036;5.906;2024-02-16T07:45:09;3.92;;;2.08;;
42030;SDS011;27709;52.036;5.906;2024-02-16T07:47:36;5.13;;;2.55;;
42030;SDS011;27709;52.036;5.906;2024-02-16T07:50:03;4.70;;;2.40;;
42030;SDS011;27709;52.036;5.906;2024-02-16T07:52:30;6.47;;;2.67;;
42030;SDS011;27709;52.036;5.906;2024-02-16T07:54:57;5.40;;;2.60;;
42030;SDS011;27709;52.036;5.906;2024-02-16T07:57:23;5.25;;;2.50;;
42030;SDS011;27709;52.036;5.906;2024-02-16T07:59:49;6.32;;;3.50;;
42030;SDS011;27709;52.036;5.906;2024-02-16T08:02:14;9.05;;;3.65;;
42030;SDS011;27709;52.036;5.906;2024-02-16T08:04:41;5.40;;;3.22;;
42030;SDS011;27709;52.036;5.906;2024-02-16T08:07:07;5.47;;;2.50;;
42030;SDS011;27709;52.036;5.906;2024-02-16T08:09:33;6.82;;;2.80;;
42030;SDS011;27709;52.036;5.906;2024-02-16T08:11:58;5.72;;;2.70;;
42030;SDS011;27709;52.036;5.906;2024-02-16T08:14:24;5.78;;;2.63;;
42030;SDS011;27709;52.036;5.906;2024-02-16T08:16:50;5.85;;;2.55;;
42030;SDS011;27709;52.036;5.906;2024-02-16T08:19:16;4.78;;;2.45;;
42030;SDS011;27709;52.036;5.906;2024-02-16T08:21:41;5.43;;;2.65;;
42030;SDS011;27709;52.036;5.906;2024-02-16T08:24:07;6.70;;;2.60;;
42030;SDS011;27709;52.036;5.906;2024-02-16T08:26:32;4.72;;;2.95;;
42030;SDS011;27709;52.036;5.906;2024-02-16T08:28:58;6.95;;;3.25;;
42030;SDS011;27709;52.036;5.906;2024-02-16T08:31:25;7.65;;;2.63;;
42030;SDS011;27709;52.036;5.906;2024-02-16T08:33:51;9.15;;;2.70;;
42030;SDS011;27709;52.036;5.906;2024-02-16T08:36:16;5.38;;;2.70;;
42030;SDS011;27709;52.036;5.906;2024-02-16T08:38:42;5.57;;;2.70;;
42030;SDS011;27709;52.036;5.906;2024-02-16T08:41:08;8.82;;;3.42;;
42030;SDS011;27709;52.036;5.906;2024-02-16T08:43:33;6.63;;;2.78;;
42030;SDS011;27709;52.036;5.906;2024-02-16T08:45:59;5.68;;;2.70;;
42030;SDS011;27709;52.036;5.906;2024-02-16T08:48:24;5.53;;;2.60;;
42030;SDS011;27709;52.036;5.906;2024-02-16T08:50:50;4.45;;;2.72;;
42030;SDS011;27709;52.036;5.906;2024-02-16T08:53:16;5.70;;;2.80;;
42030;SDS011;27709;52.036;5.906;2024-02-16T08:55:42;5.05;;;2.67;;
42030;SDS011;27709;52.036;5.906;2024-02-16T08:58:08;6.07;;;2.60;;
42030;SDS011;27709;52.036;5.906;2024-02-16T09:00:34;4.70;;;3.05;;
42030;SDS011;27709;52.036;5.906;2024-02-16T09:02:59;6.13;;;3.00;;
42030;SDS011;27709;52.036;5.906;2024-02-16T09:05:27;6.18;;;2.80;;
42030;SDS011;27709;52.036;5.906;2024-02-16T09:07:53;5.95;;;3.00;;
42030;SDS011;27709;52.036;5.906;2024-02-16T09:10:19;8.02;;;3.20;;
42030;SDS011;27709;52.036;5.906;2024-02-16T09:12:45;5.97;;;3.25;;
42030;SDS011;27709;52.036;5.906;2024-02-16T09:15:10;5.85;;;2.70;;
42030;SDS011;27709;52.036;5.906;2024-02-16T09:17:37;7.68;;;3.28;;
42030;SDS011;27709;52.036;5.906;2024-02-16T09:20:02;6.72;;;2.85;;
42030;SDS011;27709;52.036;5.906;2024-02-16T09:22:29;4.97;;;2.72;;
42030;SDS011;27709;52.036;5.906;2024-02-16T09:24:55;6.80;;;3.25;;
42030;SDS011;27709;52.036;5.906;2024-02-16T09:27:24;5.15;;;2.88;;
42030;SDS011;27709;52.036;5.906;2024-02-16T09:29:50;7.68;;;3.60;;
42030;SDS011;27709;52.036;5.906;2024-02-16T09:32:16;5.18;;;2.88;;
42030;SDS011;27709;52.036;5.906;2024-02-16T09:34:41;6.10;;;3.13;;
42030;SDS011;27709;52.036;5.906;2024-02-16T09:37:07;5.70;;;3.53;;
42030;SDS011;27709;52.036;5.906;2024-02-16T09:39:33;7.75;;;3.80;;
42030;SDS011;27709;52.036;5.906;2024-02-16T09:41:59;5.93;;;3.30;;
42030;SDS011;27709;52.036;5.906;2024-02-16T09:44:25;5.55;;;3.35;;
42030;SDS011;27709;52.036;5.906;2024-02-16T09:46:53;7.65;;;3.70;;
42030;SDS011;27709;52.036;5.906;2024-02-16T09:49:19;6.35;;;3.58;;
42030;SDS011;27709;52.036;5.906;2024-02-16T09:51:44;7.75;;;3.80;;
42030;SDS011;27709;52.036;5.906;2024-02-16T09:54:10;6.13;;;3.40;;
42030;SDS011;27709;52.036;5.906;2024-02-16T09:56:37;6.10;;;3.13;;
42030;SDS011;27709;52.036;5.906;2024-02-16T09:59:03;5.95;;;3.38;;
42030;SDS011;27709;52.036;5.906;2024-02-16T10:01:28;6.57;;;3.22;;
42030;SDS011;27709;52.036;5.906;2024-02-16T10:03:59;7.82;;;3.83;;
42030;SDS011;27709;52.036;5.906;2024-02-16T10:06:31;6.65;;;3.58;;
42030;SDS011;27709;52.036;5.906;2024-02-16T10:08:57;5.35;;;3.00;;
42030;SDS011;27709;52.036;5.906;2024-02-16T10:11:24;6.40;;;3.53;;
42030;SDS011;27709;52.036;5.906;2024-02-16T10:14:00;8.43;;;3.58;;
42030;SDS011;27709;52.036;5.906;2024-02-16T10:16:27;8.85;;;4.20;;
42030;SDS011;27709;52.036;5.906;2024-02-16T10:19:03;7.20;;;3.75;;
42030;SDS011;27709;52.036;5.906;2024-02-16T10:21:31;6.63;;;3.53;;
42030;SDS011;27709;52.036;5.906;2024-02-16T10:26:27;11.80;;;4.25;;
42030;SDS011;27709;52.036;5.906;2024-02-16T10:28:54;8.77;;;3.83;;
42030;SDS011;27709;52.036;5.906;2024-02-16T10:31:22;7.20;;;3.35;;
42030;SDS011;27709;52.036;5.906;2024-02-16T10:36:31;6.93;;;4.07;;
42030;SDS011;27709;52.036;5.906;2024-02-16T10:39:00;8.55;;;4.00;;
42030;SDS011;27709;52.036;5.906;2024-02-16T10:41:33;7.82;;;4.32;;
42030;SDS011;27709;52.036;5.906;2024-02-16T10:43:59;10.02;;;3.88;;
42030;SDS011;27709;52.036;5.906;2024-02-16T10:46:29;8.50;;;4.25;;
42030;SDS011;27709;52.036;5.906;2024-02-16T10:48:55;7.85;;;4.15;;
42030;SDS011;27709;52.036;5.906;2024-02-16T10:51:28;7.90;;;3.80;;
42030;SDS011;27709;52.036;5.906;2024-02-16T10:54:03;8.87;;;4.67;;
42030;SDS011;27709;52.036;5.906;2024-02-16T10:56:33;9.48;;;4.35;;
42030;SDS011;27709;52.036;5.906;2024-02-16T10:59:04;12.38;;;4.22;;
42030;SDS011;27709;52.036;5.906;2024-02-16T11:01:37;8.23;;;4.57;;
42030;SDS011;27709;52.036;5.906;2024-02-16T11:04:07;9.82;;;5.05;;
42030;SDS011;27709;52.036;5.906;2024-02-16T11:06:53;7.80;;;3.90;;
42030;SDS011;27709;52.036;5.906;2024-02-16T11:09:34;8.68;;;4.45;;
42030;SDS011;27709;52.036;5.906;2024-02-16T11:12:03;9.05;;;5.63;;
42030;SDS011;27709;52.036;5.906;2024-02-16T11:14:36;7.22;;;4.50;;
42030;SDS011;27709;52.036;5.906;2024-02-16T11:19:36;7.55;;;4.80;;
42030;SDS011;27709;52.036;5.906;2024-02-16T11:22:03;10.30;;;5.30;;
42030;SDS011;27709;52.036;5.906;2024-02-16T11:24:36;10.55;;;5.78;;
42030;SDS011;27709;52.036;5.906;2024-02-16T11:27:11;9.13;;;5.93;;
42030;SDS011;27709;52.036;5.906;2024-02-16T11:29:38;10.95;;;5.97;;
42030;SDS011;27709;52.036;5.906;2024-02-16T11:32:05;11.70;;;6.15;;
42030;SDS011;27709;52.036;5.906;2024-02-16T11:34:32;11.95;;;7.07;;
42030;SDS011;27709;52.036;5.906;2024-02-16T11:36:59;10.70;;;6.45;;
42030;SDS011;27709;52.036;5.906;2024-02-16T11:39:25;12.10;;;6.78;;
42030;SDS011;27709;52.036;5.906;2024-02-16T11:42:08;9.63;;;6.97;;
42030;SDS011;27709;52.036;5.906;2024-02-16T11:44:39;11.95;;;6.93;;
42030;SDS011;27709;52.036;5.906;2024-02-16T11:47:06;10.93;;;7.25;;
42030;SDS011;27709;52.036;5.906;2024-02-16T11:49:37;9.60;;;6.57;;
42030;SDS011;27709;52.036;5.906;2024-02-16T11:52:06;9.32;;;6.60;;
42030;SDS011;27709;52.036;5.906;2024-02-16T11:54:32;8.95;;;6.65;;
42030;SDS011;27709;52.036;5.906;2024-02-16T11:56:58;9.63;;;6.75;;
42030;SDS011;27709;52.036;5.906;2024-02-16T11:59:24;8.85;;;5.90;;
42030;SDS011;27709;52.036;5.906;2024-02-16T12:01:53;8.40;;;6.97;;
42030;SDS011;27709;52.036;5.906;2024-02-16T12:04:27;9.52;;;6.45;;
42030;SDS011;27709;52.036;5.906;2024-02-16T12:06:57;7.10;;;5.85;;
42030;SDS011;27709;52.036;5.906;2024-02-16T12:09:24;8.15;;;6.28;;
42030;SDS011;27709;52.036;5.906;2024-02-16T12:11:50;9.13;;;6.07;;
42030;SDS011;27709;52.036;5.906;2024-02-16T12:14:17;7.60;;;5.75;;
42030;SDS011;27709;52.036;5.906;2024-02-16T12:16:51;9.65;;;6.32;;
42030;SDS011;27709;52.036;5.906;2024-02-16T12:19:20;8.98;;;6.18;;
42030;SDS011;27709;52.036;5.906;2024-02-16T12:21:49;7.93;;;6.28;;
42030;SDS011;27709;52.036;5.906;2024-02-16T12:24:16;12.18;;;7.28;;
42030;SDS011;27709;52.036;5.906;2024-02-16T12:26:43;8.30;;;6.00;;
42030;SDS011;27709;52.036;5.906;2024-02-16T12:29:08;6.95;;;6.13;;
42030;SDS011;27709;52.036;5.906;2024-02-16T12:31:37;10.45;;;6.57;;
42030;SDS011;27709;52.036;5.906;2024-02-16T12:34:05;8.48;;;6.10;;
42030;SDS011;27709;52.036;5.906;2024-02-16T12:36:32;9.63;;;6.15;;
42030;SDS011;27709;52.036;5.906;2024-02-16T12:39:01;8.10;;;6.13;;
42030;SDS011;27709;52.036;5.906;2024-02-16T12:41:31;7.95;;;6.07;;
42030;SDS011;27709;52.036;5.906;2024-02-16T12:44:01;9.73;;;6.75;;
42030;SDS011;27709;52.036;5.906;2024-02-16T12:46:27;8.95;;;6.47;;
42030;SDS011;27709;52.036;5.906;2024-02-16T12:48:55;8.32;;;6.18;;
42030;SDS011;27709;52.036;5.906;2024-02-16T12:51:21;7.53;;;5.93;;
42030;SDS011;27709;52.036;5.906;2024-02-16T12:53:48;8.13;;;6.50;;
42030;SDS011;27709;52.036;5.906;2024-02-16T12:56:15;8.65;;;6.70;;
42030;SDS011;27709;52.036;5.906;2024-02-16T12:58:41;9.45;;;7.63;;
42030;SDS011;27709;52.036;5.906;2024-02-16T13:01:07;8.93;;;7.22;;
42030;SDS011;27709;52.036;5.906;2024-02-16T13:03:33;9.85;;;8.10;;
42030;SDS011;27709;52.036;5.906;2024-02-16T13:06:00;9.60;;;7.32;;
42030;SDS011;27709;52.036;5.906;2024-02-16T13:08:26;9.45;;;7.55;;
42030;SDS011;27709;52.036;5.906;2024-02-16T13:10:54;9.75;;;7.68;;
42030;SDS011;27709;52.036;5.906;2024-02-16T13:13:19;8.30;;;7.10;;
42030;SDS011;27709;52.036;5.906;2024-02-16T13:15:47;10.50;;;7.65;;
42030;SDS011;27709;52.036;5.906;2024-02-16T13:18:13;9.75;;;7.07;;
42030;SDS011;27709;52.036;5.906;2024-02-16T13:20:39;8.60;;;7.45;;
42030;SDS011;27709;52.036;5.906;2024-02-16T13:23:05;9.18;;;7.80;;
42030;SDS011;27709;52.036;5.906;2024-02-16T13:25:31;11.82;;;7.30;;
42030;SDS011;27709;52.036;5.906;2024-02-16T13:27:56;8.38;;;7.10;;
42030;SDS011;27709;52.036;5.906;2024-02-16T13:30:22;9.82;;;7.15;;
42030;SDS011;27709;52.036;5.906;2024-02-16T13:32:48;8.18;;;6.57;;
42030;SDS011;27709;52.036;5.906;2024-02-16T13:35:13;10.00;;;7.75;;
42030;SDS011;27709;52.036;5.906;2024-02-16T13:37:40;9.90;;;6.93;;
42030;SDS011;27709;52.036;5.906;2024-02-16T13:40:08;8.60;;;6.82;;
42030;SDS011;27709;52.036;5.906;2024-02-16T13:42:38;8.35;;;5.82;;
42030;SDS011;27709;52.036;5.906;2024-02-16T13:45:05;7.05;;;6.03;;
42030;SDS011;27709;52.036;5.906;2024-02-16T13:47:31;7.70;;;5.63;;
42030;SDS011;27709;52.036;5.906;2024-02-16T13:49:56;7.75;;;5.72;;
42030;SDS011;27709;52.036;5.906;2024-02-16T13:52:23;6.88;;;5.15;;
42030;SDS011;27709;52.036;5.906;2024-02-16T13:54:49;7.22;;;5.22;;
42030;SDS011;27709;52.036;5.906;2024-02-16T13:57:15;7.20;;;5.18;;
42030;SDS011;27709;52.036;5.906;2024-02-16T13:59:42;6.15;;;4.68;;
42030;SDS011;27709;52.036;5.906;2024-02-16T14:02:08;6.00;;;4.82;;
42030;SDS011;27709;52.036;5.906;2024-02-16T14:04:34;6.53;;;4.90;;
42030;SDS011;27709;52.036;5.906;2024-02-16T14:07:00;6.40;;;4.60;;
42030;SDS011;27709;52.036;5.906;2024-02-16T14:09:25;5.80;;;4.07;;
42030;SDS011;27709;52.036;5.906;2024-02-16T14:11:51;5.32;;;3.72;;
42030;SDS011;27709;52.036;5.906;2024-02-16T14:14:20;4.53;;;3.50;;
42030;SDS011;27709;52.036;5.906;2024-02-16T14:16:46;4.93;;;3.50;;
42030;SDS011;27709;52.036;5.906;2024-02-16T14:19:12;4.57;;;3.00;;
42030;SDS011;27709;52.036;5.906;2024-02-16T14:21:37;4.45;;;2.97;;
42030;SDS011;27709;52.036;5.906;2024-02-16T14:24:03;4.75;;;2.50;;
42030;SDS011;27709;52.036;5.906;2024-02-16T14:26:29;4.25;;;2.58;;
42030;SDS011;27709;52.036;5.906;2024-02-16T14:28:54;3.33;;;2.28;;
42030;SDS011;27709;52.036;5.906;2024-02-16T14:31:20;4.85;;;2.60;;
42030;SDS011;27709;52.036;5.906;2024-02-16T14:33:47;4.65;;;2.70;;
42030;SDS011;27709;52.036;5.906;2024-02-16T14:36:13;3.67;;;2.05;;
42030;SDS011;27709;52.036;5.906;2024-02-16T14:38:39;2.67;;;1.85;;
42030;SDS011;27709;52.036;5.906;2024-02-16T14:41:04;3.03;;;2.05;;
42030;SDS011;27709;52.036;5.906;2024-02-16T14:43:31;2.97;;;1.83;;
42030;SDS011;27709;52.036;5.906;2024-02-16T14:46:00;3.03;;;2.00;;
42030;SDS011;27709;52.036;5.906;2024-02-16T14:48:26;3.15;;;1.70;;
42030;SDS011;27709;52.036;5.906;2024-02-16T14:50:52;3.17;;;1.63;;
42030;SDS011;27709;52.036;5.906;2024-02-16T14:53:21;3.47;;;1.65;;